sensor_id;sensor_type;location;lat;lon;timestamp;pressure;altitude;pressure_sealevel;temperature;humidity
59367;BME280;45163;47.690;11.770;2022-11-20T00:03:31;92760.34;;;2.53;100.00
59367;BME280;45163;47.690;11.770;2022-11-20T00:06:05;92756.06;;;2.59;100.00
59367;BME280;45163;47.690;11.770;2022-11-20T00:08:31;92759.16;;;2.57;100.00
59367;BME280;45163;47.690;11.770;2022-11-20T00:10:57;92761.84;;;2.57;100.00
59367;BME280;45163;47.690;11.770;2022-11-20T00:13:23;92767.63;;;2.56;100.00
59367;BME280;45163;47.690;11.770;2022-11-20T00:15:56;92767.22;;;2.57;100.00
59367;BME280;45163;47.690;11.770;2022-11-20T00:18:23;92761.50;;;2.55;100.00
59367;BME280;45163;47.690;11.770;2022-11-20T00:20:49;92761.50;;;2.55;100.00
59367;BME280;45163;47.690;11.770;2022-11-20T00:23:14;92767.63;;;2.56;100.00
59367;BME280;45163;47.690;11.770;2022-11-20T00:25:40;92767.22;;;2.57;100.00
59367;BME280;45163;47.690;11.770;2022-11-20T00:28:06;92776.47;;;2.60;100.00
59367;BME280;45163;47.690;11.770;2022-11-20T00:30:32;92780.66;;;2.64;100.00
59367;BME280;45163;47.690;11.770;2022-11-20T00:32:58;92771.75;;;2.67;100.00
59367;BME280;45163;47.690;11.770;2022-11-20T00:35:24;92775.19;;;2.71;100.00
59367;BME280;45163;47.690;11.770;2022-11-20T00:37:50;92769.41;;;2.73;100.00
59367;BME280;45163;47.690;11.770;2022-11-20T00:40:16;92780.56;;;2.75;100.00
59367;BME280;45163;47.690;11.770;2022-11-20T00:42:42;92777.88;;;2.75;100.00
59367;BME280;45163;47.690;11.770;2022-11-20T00:45:08;92779.38;;;2.80;100.00
59367;BME280;45163;47.690;11.770;2022-11-20T00:47:34;92780.09;;;2.84;100.00
59367;BME280;45163;47.690;11.770;2022-11-20T00:50:03;92789.28;;;2.93;100.00
59367;BME280;45163;47.690;11.770;2022-11-20T00:52:29;92782.69;;;2.98;100.00
59367;BME280;45163;47.690;11.770;2022-11-20T00:54:54;92788.78;;;3.06;100.00
59367;BME280;45163;47.690;11.770;2022-11-20T00:57:23;92783.41;;;3.02;100.00
59367;BME280;45163;47.690;11.770;2022-11-20T00:59:49;92783.81;;;3.00;100.00
59367;BME280;45163;47.690;11.770;2022-11-20T01:02:15;92782.50;;;3.16;100.00
59367;BME280;45163;47.690;11.770;2022-11-20T01:04:42;92785.47;;;3.29;100.00
59367;BME280;45163;47.690;11.770;2022-11-20T01:07:08;92776.88;;;3.41;100.00
59367;BME280;45163;47.690;11.770;2022-11-20T01:09:34;92774.53;;;3.43;100.00
59367;BME280;45163;47.690;11.770;2022-11-20T01:12:00;92779.13;;;3.46;100.00
59367;BME280;45163;47.690;11.770;2022-11-20T01:14:26;92781.81;;;3.46;100.00
59367;BME280;45163;47.690;11.770;2022-11-20T01:16:52;92782.16;;;3.52;100.00
59367;BME280;45163;47.690;11.770;2022-11-20T01:19:20;92777.84;;;3.58;100.00
59367;BME280;45163;47.690;11.770;2022-11-20T01:21:50;92775.84;;;3.65;100.00
59367;BME280;45163;47.690;11.770;2022-11-20T01:24:17;92782.75;;;3.66;100.00
59367;BME280;45163;47.690;11.770;2022-11-20T01:26:49;92777.84;;;3.58;100.00
59367;BME280;45163;47.690;11.770;2022-11-20T01:29:21;92787.16;;;3.53;100.00
59367;BME280;45163;47.690;11.770;2022-11-20T01:31:48;92777.13;;;3.54;100.00
59367;BME280;45163;47.690;11.770;2022-11-20T01:34:16;92774.34;;;3.61;100.00
59367;BME280;45163;47.690;11.770;2022-11-20T01:36:43;92779.31;;;3.62;100.00
59367;BME280;45163;47.690;11.770;2022-11-20T01:39:24;92778.06;;;3.70;100.00
59367;BME280;45163;47.690;11.770;2022-11-20T01:41:52;92777.28;;;3.73;100.00
59367;BME280;45163;47.690;11.770;2022-11-20T01:47:23;92775.38;;;3.70;100.00
59367;BME280;45163;47.690;11.770;2022-11-20T01:49:58;92778.53;;;3.65;100.00
59367;BME280;45163;47.690;11.770;2022-11-20T01:52:39;92775.06;;;3.65;100.00
59367;BME280;45163;47.690;11.770;2022-11-20T01:55:13;92777.75;;;3.65;100.00
59367;BME280;45163;47.690;11.770;2022-11-20T01:57:40;92777.00;;;3.64;100.00
59367;BME280;45163;47.690;11.770;2022-11-20T02:02:36;92777.88;;;3.54;100.00
59367;BME280;45163;47.690;11.770;2022-11-20T02:05:14;92782.16;;;3.52;100.00
59367;BME280;45163;47.690;11.770;2022-11-20T02:07:43;92777.16;;;3.50;100.00
59367;BME280;45163;47.690;11.770;2022-11-20T02:10:09;92781.06;;;3.45;100.00
59367;BME280;45163;47.690;11.770;2022-11-20T02:12:35;92784.44;;;3.53;100.00
59367;BME280;45163;47.690;11.770;2022-11-20T02:15:20;92777.84;;;3.58;100.00
59367;BME280;45163;47.690;11.770;2022-11-20T02:17:46;92778.63;;;3.55;100.00
59367;BME280;45163;47.690;11.770;2022-11-20T02:20:12;92785.97;;;3.54;100.00
59367;BME280;45163;47.690;11.770;2022-11-20T02:22:48;92784.91;;;3.48;100.00
59367;BME280;45163;47.690;11.770;2022-11-20T02:25:18;92774.47;;;3.46;100.00
59367;BME280;45163;47.690;11.770;2022-11-20T02:27:45;92778.78;;;3.44;100.00
59367;BME280;45163;47.690;11.770;2022-11-20T02:30:11;92770.75;;;3.37;100.00
59367;BME280;45163;47.690;11.770;2022-11-20T02:32:38;92774.25;;;3.34;100.00
59367;BME280;45163;47.690;11.770;2022-11-20T02:35:09;92771.44;;;3.44;100.00
59367;BME280;45163;47.690;11.770;2022-11-20T02:37:39;92772.56;;;3.47;100.00
59367;BME280;45163;47.690;11.770;2022-11-20T02:40:06;92771.44;;;3.44;100.00
59367;BME280;45163;47.690;11.770;2022-11-20T02:42:33;92774.88;;;3.48;100.00
59367;BME280;45163;47.690;11.770;2022-11-20T02:44:58;92781.47;;;3.44;100.00
59367;BME280;45163;47.690;11.770;2022-11-20T02:47:24;92777.28;;;3.39;100.00
59367;BME280;45163;47.690;11.770;2022-11-20T02:49:50;92782.75;;;3.32;100.00
59367;BME280;45163;47.690;11.770;2022-11-20T02:52:16;92777.38;;;3.29;100.00
59367;BME280;45163;47.690;11.770;2022-11-20T02:54:42;92780.88;;;3.25;100.00
59367;BME280;45163;47.690;11.770;2022-11-20T02:57:08;92782.41;;;3.27;100.00
59367;BME280;45163;47.690;11.770;2022-11-20T02:59:34;92780.50;;;3.27;100.00
59367;BME280;45163;47.690;11.770;2022-11-20T03:02:00;92779.28;;;3.32;100.00
59367;BME280;45163;47.690;11.770;2022-11-20T03:04:26;92782.03;;;3.24;100.00
59367;BME280;45163;47.690;11.770;2022-11-20T03:06:52;92789.06;;;3.18;100.00
59367;BME280;45163;47.690;11.770;2022-11-20T03:09:18;92792.22;;;3.10;100.00
59367;BME280;45163;47.690;11.770;2022-11-20T03:11:44;92790.34;;;3.03;100.00
59367;BME280;45163;47.690;11.770;2022-11-20T03:14:10;92801.56;;;2.98;100.00
59367;BME280;45163;47.690;11.770;2022-11-20T03:16:36;92802.00;;;2.89;100.00
59367;BME280;45163;47.690;11.770;2022-11-20T03:19:02;92806.28;;;2.83;100.00
59367;BME280;45163;47.690;11.770;2022-11-20T03:21:28;92804.47;;;2.73;100.00
59367;BME280;45163;47.690;11.770;2022-11-20T03:23:54;92802.19;;;2.68;100.00
59367;BME280;45163;47.690;11.770;2022-11-20T03:26:23;92814.19;;;2.60;100.00
59367;BME280;45163;47.690;11.770;2022-11-20T03:29:00;92810.34;;;2.57;100.00
59367;BME280;45163;47.690;11.770;2022-11-20T03:31:29;92806.16;;;2.49;100.00
59367;BME280;45163;47.690;11.770;2022-11-20T03:33:56;92817.34;;;2.44;100.00
59367;BME280;45163;47.690;11.770;2022-11-20T03:36:22;92805.06;;;2.39;100.00
59367;BME280;45163;47.690;11.770;2022-11-20T03:38:49;92808.19;;;2.34;100.00
59367;BME280;45163;47.690;11.770;2022-11-20T03:41:20;92808.97;;;2.31;100.00
59367;BME280;45163;47.690;11.770;2022-11-20T03:44:06;92811.28;;;2.29;100.00
59367;BME280;45163;47.690;11.770;2022-11-20T03:46:33;92816.66;;;2.29;100.00
59367;BME280;45163;47.690;11.770;2022-11-20T03:48:59;92816.28;;;2.31;100.00
59367;BME280;45163;47.690;11.770;2022-11-20T03:51:30;92811.28;;;2.25;100.00
59367;BME280;45163;47.690;11.770;2022-11-20T03:53:58;92819.72;;;2.35;100.00
59367;BME280;45163;47.690;11.770;2022-11-20T03:56:27;92823.94;;;2.39;100.00
59367;BME280;45163;47.690;11.770;2022-11-20T03:58:54;92817.38;;;2.40;100.00
59367;BME280;45163;47.690;11.770;2022-11-20T04:01:25;92817.63;;;2.60;100.00
59367;BME280;45163;47.690;11.770;2022-11-20T04:03:53;92809.16;;;2.62;100.00
59367;BME280;45163;47.690;11.770;2022-11-20T04:06:24;92805.25;;;2.66;100.00
59367;BME280;45163;47.690;11.770;2022-11-20T04:08:50;92813.75;;;2.65;100.00
59367;BME280;45163;47.690;11.770;2022-11-20T04:11:27;92814.50;;;2.65;100.00
59367;BME280;45163;47.690;11.770;2022-11-20T04:14:05;92811.41;;;2.67;100.00
59367;BME280;45163;47.690;11.770;2022-11-20T04:16:34;92799.50;;;2.68;100.00
59367;BME280;45163;47.690;11.770;2022-11-20T04:19:02;92806.84;;;2.64;100.00
59367;BME280;45163;47.690;11.770;2022-11-20T04:21:29;92798.78;;;2.60;100.00
59367;BME280;45163;47.690;11.770;2022-11-20T04:23:55;92800.66;;;2.63;100.00
59367;BME280;45163;47.690;11.770;2022-11-20T04:26:23;92807.19;;;2.66;100.00
59367;BME280;45163;47.690;11.770;2022-11-20T04:28:50;92804.88;;;2.68;100.00
59367;BME280;45163;47.690;11.770;2022-11-20T04:31:19;92799.88;;;2.66;100.00
59367;BME280;45163;47.690;11.770;2022-11-20T04:33:45;92800.63;;;2.67;100.00
59367;BME280;45163;47.690;11.770;2022-11-20T04:36:23;92799.50;;;2.68;100.00
59367;BME280;45163;47.690;11.770;2022-11-20T04:38:57;92799.03;;;2.77;100.00
59367;BME280;45163;47.690;11.770;2022-11-20T04:41:25;92791.25;;;2.86;100.00
59367;BME280;45163;47.690;11.770;2022-11-20T04:43:54;92794.31;;;2.88;100.00
59367;BME280;45163;47.690;11.770;2022-11-20T04:46:26;92792.75;;;2.90;100.00
59367;BME280;45163;47.690;11.770;2022-11-20T04:48:52;92787.72;;;2.92;100.00
59367;BME280;45163;47.690;11.770;2022-11-20T04:51:19;92795.41;;;2.97;100.00
59367;BME280;45163;47.690;11.770;2022-11-20T04:53:45;92795.41;;;2.97;100.00
59367;BME280;45163;47.690;11.770;2022-11-20T04:56:12;92798.19;;;2.87;100.00
59367;BME280;45163;47.690;11.770;2022-11-20T04:58:38;92800.50;;;2.85;100.00
59367;BME280;45163;47.690;11.770;2022-11-20T05:01:12;92804.78;;;2.79;100.00
59367;BME280;45163;47.690;11.770;2022-11-20T05:03:40;92799.41;;;2.75;100.00
59367;BME280;45163;47.690;11.770;2022-11-20T05:06:07;92806.38;;;2.72;100.00
59367;BME280;45163;47.690;11.770;2022-11-20T05:08:33;92807.44;;;2.86;100.00
59367;BME280;45163;47.690;11.770;2022-11-20T05:11:10;92799.31;;;2.89;100.00
59367;BME280;45163;47.690;11.770;2022-11-20T05:13:36;92800.47;;;2.88;100.00
59367;BME280;45163;47.690;11.770;2022-11-20T05:16:08;92806.66;;;2.85;100.00
59367;BME280;45163;47.690;11.770;2022-11-20T05:18:36;92807.47;;;2.82;100.00
59367;BME280;45163;47.690;11.770;2022-11-20T05:21:03;92806.69;;;2.82;100.00
59367;BME280;45163;47.690;11.770;2022-11-20T05:23:30;92816.59;;;2.95;100.00
59367;BME280;45163;47.690;11.770;2022-11-20T05:25:57;92809.69;;;2.91;100.00
59367;BME280;45163;47.690;11.770;2022-11-20T05:28:24;92815.09;;;2.87;100.00
59367;BME280;45163;47.690;11.770;2022-11-20T05:30:51;92823.59;;;2.86;100.00
59367;BME280;45163;47.690;11.770;2022-11-20T05:33:17;92825.59;;;2.74;100.00
59367;BME280;45163;47.690;11.770;2022-11-20T05:35:43;92819.03;;;2.75;100.00
59367;BME280;45163;47.690;11.770;2022-11-20T05:38:10;92826.44;;;2.68;100.00
59367;BME280;45163;47.690;11.770;2022-11-20T05:40:36;92823.03;;;2.60;100.00
59367;BME280;45163;47.690;11.770;2022-11-20T05:43:02;92834.16;;;2.62;100.00
59367;BME280;45163;47.690;11.770;2022-11-20T05:45:28;92832.63;;;2.61;100.00
59367;BME280;45163;47.690;11.770;2022-11-20T05:47:57;92841.50;;;2.55;100.00
59367;BME280;45163;47.690;11.770;2022-11-20T05:50:23;92838.88;;;2.51;100.00
59367;BME280;45163;47.690;11.770;2022-11-20T05:52:49;92844.63;;;2.53;100.00
59367;BME280;45163;47.690;11.770;2022-11-20T05:55:15;92839.25;;;2.46;100.00
59367;BME280;45163;47.690;11.770;2022-11-20T05:57:41;92838.06;;;2.50;100.00
59367;BME280;45163;47.690;11.770;2022-11-20T06:00:07;92836.56;;;2.46;100.00
59367;BME280;45163;47.690;11.770;2022-11-20T06:02:37;92843.13;;;2.45;100.00
59367;BME280;45163;47.690;11.770;2022-11-20T06:05:03;92854.69;;;2.42;100.00
59367;BME280;45163;47.690;11.770;2022-11-20T06:07:29;92855.09;;;2.40;100.00
59367;BME280;45163;47.690;11.770;2022-11-20T06:09:55;92851.63;;;2.40;100.00
59367;BME280;45163;47.690;11.770;2022-11-20T06:12:21;92848.50;;;2.48;100.00
59367;BME280;45163;47.690;11.770;2022-11-20T06:14:46;92844.25;;;2.51;100.00
59367;BME280;45163;47.690;11.770;2022-11-20T06:17:13;92847.28;;;2.57;100.00
59367;BME280;45163;47.690;11.770;2022-11-20T06:19:39;92841.88;;;2.64;100.00
59367;BME280;45163;47.690;11.770;2022-11-20T06:22:05;92831.84;;;2.64;100.00
59367;BME280;45163;47.690;11.770;2022-11-20T06:24:31;92825.88;;;2.87;100.00
59367;BME280;45163;47.690;11.770;2022-11-20T06:26:57;92828.13;;;2.96;100.00
59367;BME280;45163;47.690;11.770;2022-11-20T06:29:22;92835.09;;;2.93;100.00
59367;BME280;45163;47.690;11.770;2022-11-20T06:31:48;92829.72;;;2.93;100.00
59367;BME280;45163;47.690;11.770;2022-11-20T06:34:14;92833.44;;;3.07;100.00
59367;BME280;45163;47.690;11.770;2022-11-20T06:36:40;92835.41;;;3.03;100.00
59367;BME280;45163;47.690;11.770;2022-11-20T06:39:06;92837.69;;;3.04;100.00
59367;BME280;45163;47.690;11.770;2022-11-20T06:41:32;92842.31;;;3.04;100.00
59367;BME280;45163;47.690;11.770;2022-11-20T06:43:58;92834.56;;;3.09;100.00
59367;BME280;45163;47.690;11.770;2022-11-20T06:46:24;92837.97;;;3.17;100.00
59367;BME280;45163;47.690;11.770;2022-11-20T06:48:50;92849.94;;;3.16;100.00
59367;BME280;45163;47.690;11.770;2022-11-20T06:51:17;92846.81;;;3.17;100.00
59367;BME280;45163;47.690;11.770;2022-11-20T06:53:43;92846.44;;;3.19;100.00
59367;BME280;45163;47.690;11.770;2022-11-20T06:56:09;92847.63;;;3.18;100.00
59367;BME280;45163;47.690;11.770;2022-11-20T06:58:35;92853.38;;;3.16;100.00
59367;BME280;45163;47.690;11.770;2022-11-20T07:01:09;92860.31;;;3.17;100.00
59367;BME280;45163;47.690;11.770;2022-11-20T07:03:35;92863.81;;;3.14;100.00
59367;BME280;45163;47.690;11.770;2022-11-20T07:06:02;92860.72;;;3.16;100.00
59367;BME280;45163;47.690;11.770;2022-11-20T07:08:28;92871.97;;;3.07;100.00
59367;BME280;45163;47.690;11.770;2022-11-20T07:10:59;92875.13;;;2.95;100.00
59367;BME280;45163;47.690;11.770;2022-11-20T07:13:26;92876.72;;;2.89;100.00
59367;BME280;45163;47.690;11.770;2022-11-20T07:15:53;92872.91;;;2.83;100.00
59367;BME280;45163;47.690;11.770;2022-11-20T07:18:19;92879.00;;;2.90;100.00
59367;BME280;45163;47.690;11.770;2022-11-20T07:20:45;92880.50;;;2.98;100.00
59367;BME280;45163;47.690;11.770;2022-11-20T07:23:11;92880.91;;;2.97;100.00
59367;BME280;45163;47.690;11.770;2022-11-20T07:25:37;92877.00;;;3.02;100.00
59367;BME280;45163;47.690;11.770;2022-11-20T07:28:03;92875.78;;;3.10;100.00
59367;BME280;45163;47.690;11.770;2022-11-20T07:30:30;92872.66;;;3.15;100.00
59367;BME280;45163;47.690;11.770;2022-11-20T07:32:56;92877.66;;;3.16;100.00
59367;BME280;45163;47.690;11.770;2022-11-20T07:35:23;92875.00;;;3.09;100.00
59367;BME280;45163;47.690;11.770;2022-11-20T07:37:50;92873.47;;;3.08;100.00
59367;BME280;45163;47.690;11.770;2022-11-20T07:40:16;92879.22;;;3.14;100.00
59367;BME280;45163;47.690;11.770;2022-11-20T07:42:49;92870.31;;;3.17;100.00
59367;BME280;45163;47.690;11.770;2022-11-20T07:45:16;92883.28;;;3.36;100.00
59367;BME280;45163;47.690;11.770;2022-11-20T07:47:43;92862.69;;;3.53;100.00
59367;BME280;45163;47.690;11.770;2022-11-20T07:50:10;92874.94;;;3.61;100.00
59367;BME280;45163;47.690;11.770;2022-11-20T07:52:36;92874.47;;;3.70;100.00
59367;BME280;45163;47.690;11.770;2022-11-20T07:55:02;92864.38;;;3.78;100.00
59367;BME280;45163;47.690;11.770;2022-11-20T07:57:28;92854.31;;;3.82;100.00
59367;BME280;45163;47.690;11.770;2022-11-20T07:59:54;92867.28;;;3.94;100.00
59367;BME280;45163;47.690;11.770;2022-11-20T08:02:19;92867.78;;;3.85;100.00
59367;BME280;45163;47.690;11.770;2022-11-20T08:04:45;92864.34;;;3.81;100.00
59367;BME280;45163;47.690;11.770;2022-11-20T08:07:11;92876.69;;;3.79;100.00
59367;BME280;45163;47.690;11.770;2022-11-20T08:09:37;92875.97;;;3.74;100.00
59367;BME280;45163;47.690;11.770;2022-11-20T08:12:03;92878.31;;;3.72;100.00
59367;BME280;45163;47.690;11.770;2022-11-20T08:14:48;92879.97;;;3.59;100.00
59367;BME280;45163;47.690;11.770;2022-11-20T08:17:14;92878.13;;;3.53;100.00
59367;BME280;45163;47.690;11.770;2022-11-20T08:19:40;92880.84;;;3.49;100.00
59367;BME280;45163;47.690;11.770;2022-11-20T08:22:06;92886.97;;;3.53;100.00
59367;BME280;45163;47.690;11.770;2022-11-20T08:24:32;92879.91;;;3.66;100.00
59367;BME280;45163;47.690;11.770;2022-11-20T08:26:58;92880.50;;;3.85;100.00
59367;BME280;45163;47.690;11.770;2022-11-20T08:29:26;92887.22;;;4.04;100.00
59367;BME280;45163;47.690;11.770;2022-11-20T08:31:52;92877.66;;;4.30;100.00
59367;BME280;45163;47.690;11.770;2022-11-20T08:34:18;92864.38;;;4.42;100.00
59367;BME280;45163;47.690;11.770;2022-11-20T08:36:44;92866.47;;;4.58;100.00
59367;BME280;45163;47.690;11.770;2022-11-20T08:39:12;92866.03;;;4.63;100.00
59367;BME280;45163;47.690;11.770;2022-11-20T08:41:38;92861.63;;;4.77;100.00
59367;BME280;45163;47.690;11.770;2022-11-20T08:44:06;92870.19;;;5.22;100.00
59367;BME280;45163;47.690;11.770;2022-11-20T08:46:34;92862.97;;;5.82;100.00
59367;BME280;45163;47.690;11.770;2022-11-20T08:49:06;92846.72;;;6.62;100.00
59367;BME280;45163;47.690;11.770;2022-11-20T08:51:32;92838.56;;;7.47;100.00
59367;BME280;45163;47.690;11.770;2022-11-20T08:53:58;92841.41;;;8.72;100.00
59367;BME280;45163;47.690;11.770;2022-11-20T08:56:24;92836.16;;;9.42;100.00
59367;BME280;45163;47.690;11.770;2022-11-20T08:58:51;92838.91;;;10.11;100.00
59367;BME280;45163;47.690;11.770;2022-11-20T09:01:19;92832.94;;;10.38;94.37
59367;BME280;45163;47.690;11.770;2022-11-20T09:03:46;92837.44;;;10.85;87.61
59367;BME280;45163;47.690;11.770;2022-11-20T09:06:12;92830.88;;;10.08;74.63
59367;BME280;45163;47.690;11.770;2022-11-20T09:08:38;92839.25;;;9.79;73.65
59367;BME280;45163;47.690;11.770;2022-11-20T09:11:05;92840.22;;;9.37;70.09
59367;BME280;45163;47.690;11.770;2022-11-20T09:13:32;92844.13;;;8.85;78.02
59367;BME280;45163;47.690;11.770;2022-11-20T09:16:03;92846.53;;;8.83;80.19
59367;BME280;45163;47.690;11.770;2022-11-20T09:18:31;92839.50;;;8.44;82.29
59367;BME280;45163;47.690;11.770;2022-11-20T09:21:03;92843.06;;;7.99;78.54
59367;BME280;45163;47.690;11.770;2022-11-20T09:23:35;92838.25;;;7.90;75.33
59367;BME280;45163;47.690;11.770;2022-11-20T09:26:05;92842.69;;;7.68;79.65
59367;BME280;45163;47.690;11.770;2022-11-20T09:28:32;92845.25;;;7.42;82.70
59367;BME280;45163;47.690;11.770;2022-11-20T09:30:58;92840.88;;;7.16;85.26
59367;BME280;45163;47.690;11.770;2022-11-20T09:33:24;92839.66;;;7.01;90.95
59367;BME280;45163;47.690;11.770;2022-11-20T09:35:53;92840.06;;;6.83;96.34
59367;BME280;45163;47.690;11.770;2022-11-20T09:38:18;92833.97;;;6.79;93.54
59367;BME280;45163;47.690;11.770;2022-11-20T09:44:24;92837.91;;;8.59;87.97
59367;BME280;45163;47.690;11.770;2022-11-20T09:55:18;92831.75;;;7.55;79.06
59367;BME280;45163;47.690;11.770;2022-11-20T09:57:46;92840.84;;;6.99;82.61
59367;BME280;45163;47.690;11.770;2022-11-20T10:00:14;92832.81;;;6.60;82.37
59367;BME280;45163;47.690;11.770;2022-11-20T10:02:54;92831.88;;;6.10;83.30
59367;BME280;45163;47.690;11.770;2022-11-20T10:05:27;92823.75;;;6.10;84.98
59367;BME280;45163;47.690;11.770;2022-11-20T10:08:19;92823.28;;;6.15;90.65
59367;BME280;45163;47.690;11.770;2022-11-20T10:10:52;92820.28;;;6.30;93.43
59367;BME280;45163;47.690;11.770;2022-11-20T10:17:03;92807.16;;;7.91;98.84
59367;BME280;45163;47.690;11.770;2022-11-20T10:30:41;92800.88;;;9.38;68.65
59367;BME280;45163;47.690;11.770;2022-11-20T10:35:41;92787.84;;;9.55;77.53
59367;BME280;45163;47.690;11.770;2022-11-20T10:38:23;92787.78;;;11.77;79.38
59367;BME280;45163;47.690;11.770;2022-11-20T10:40:54;92780.41;;;13.08;60.75
59367;BME280;45163;47.690;11.770;2022-11-20T10:43:43;92770.25;;;14.87;50.55
59367;BME280;45163;47.690;11.770;2022-11-20T10:46:19;92769.41;;;15.46;43.80
59367;BME280;45163;47.690;11.770;2022-11-20T10:48:46;92770.31;;;15.58;42.23
59367;BME280;45163;47.690;11.770;2022-11-20T10:51:25;92776.97;;;17.37;42.10
59367;BME280;45163;47.690;11.770;2022-11-20T10:54:03;92774.13;;;18.11;40.75
59367;BME280;45163;47.690;11.770;2022-11-20T10:56:43;92771.72;;;17.39;36.81
59367;BME280;45163;47.690;11.770;2022-11-20T11:01:55;92766.38;;;18.21;34.93
59367;BME280;45163;47.690;11.770;2022-11-20T11:04:50;92757.75;;;19.57;34.38
59367;BME280;45163;47.690;11.770;2022-11-20T11:07:21;92750.47;;;19.65;34.21
59367;BME280;45163;47.690;11.770;2022-11-20T11:09:57;92755.88;;;20.05;34.20
59367;BME280;45163;47.690;11.770;2022-11-20T11:12:25;92747.97;;;18.78;35.58
59367;BME280;45163;47.690;11.770;2022-11-20T11:14:54;92743.84;;;19.85;34.31
59367;BME280;45163;47.690;11.770;2022-11-20T11:20:03;92740.91;;;19.61;33.92
59367;BME280;45163;47.690;11.770;2022-11-20T11:22:31;92736.91;;;20.78;30.45
59367;BME280;45163;47.690;11.770;2022-11-20T11:24:58;92731.09;;;19.49;33.52
59367;BME280;45163;47.690;11.770;2022-11-20T11:27:25;92734.00;;;19.96;31.64
59367;BME280;45163;47.690;11.770;2022-11-20T11:30:02;92732.91;;;20.74;32.51
59367;BME280;45163;47.690;11.770;2022-11-20T11:32:28;92731.84;;;21.73;31.91
59367;BME280;45163;47.690;11.770;2022-11-20T11:35:02;92726.84;;;21.11;31.45
59367;BME280;45163;47.690;11.770;2022-11-20T11:37:33;92732.28;;;21.52;29.05
59367;BME280;45163;47.690;11.770;2022-11-20T11:40:03;92728.56;;;20.37;28.84
59367;BME280;45163;47.690;11.770;2022-11-20T11:42:30;92722.81;;;19.21;28.72
59367;BME280;45163;47.690;11.770;2022-11-20T11:44:58;92729.94;;;17.14;32.41
59367;BME280;45163;47.690;11.770;2022-11-20T11:52:58;92734.91;;;10.53;44.56
59367;BME280;45163;47.690;11.770;2022-11-20T11:58:45;92737.47;;;8.39;51.89
59367;BME280;45163;47.690;11.770;2022-11-20T12:06:32;92742.44;;;8.28;56.38
59367;BME280;45163;47.690;11.770;2022-11-20T12:09:05;92745.16;;;9.05;56.63
59367;BME280;45163;47.690;11.770;2022-11-20T12:14:21;92736.75;;;9.25;55.36
59367;BME280;45163;47.690;11.770;2022-11-20T12:16:53;92732.81;;;9.82;54.98
59367;BME280;45163;47.690;11.770;2022-11-20T12:19:21;92738.56;;;12.13;50.03
59367;BME280;45163;47.690;11.770;2022-11-20T12:30:13;92722.97;;;17.25;35.33
59367;BME280;45163;47.690;11.770;2022-11-20T12:43:24;92701.63;;;18.33;28.91
59367;BME280;45163;47.690;11.770;2022-11-20T12:51:50;92691.47;;;14.19;33.49
59367;BME280;45163;47.690;11.770;2022-11-20T12:59:59;92697.25;;;12.96;41.65
59367;BME280;45163;47.690;11.770;2022-11-20T13:08:42;92688.56;;;13.21;40.12
59367;BME280;45163;47.690;11.770;2022-11-20T13:11:34;92678.06;;;13.68;40.57
59367;BME280;45163;47.690;11.770;2022-11-20T13:19:25;92679.25;;;10.91;44.52
59367;BME280;45163;47.690;11.770;2022-11-20T13:21:52;92666.13;;;10.58;46.48
59367;BME280;45163;47.690;11.770;2022-11-20T13:26:45;92654.16;;;9.71;46.21
59367;BME280;45163;47.690;11.770;2022-11-20T13:29:16;92653.44;;;9.49;48.63
59367;BME280;45163;47.690;11.770;2022-11-20T13:31:45;92647.88;;;9.40;47.91
59367;BME280;45163;47.690;11.770;2022-11-20T13:34:14;92654.53;;;9.17;48.44
59367;BME280;45163;47.690;11.770;2022-11-20T13:36:51;92653.94;;;9.00;49.02
59367;BME280;45163;47.690;11.770;2022-11-20T13:39:44;92652.75;;;8.88;50.04
59367;BME280;45163;47.690;11.770;2022-11-20T13:44:43;92648.59;;;8.36;50.03
59367;BME280;45163;47.690;11.770;2022-11-20T13:47:36;92645.88;;;8.23;50.86
59367;BME280;45163;47.690;11.770;2022-11-20T13:50:03;92643.25;;;8.20;52.98
59367;BME280;45163;47.690;11.770;2022-11-20T14:00:43;92648.63;;;7.69;52.54
59367;BME280;45163;47.690;11.770;2022-11-20T14:03:21;92643.16;;;7.43;51.89
59367;BME280;45163;47.690;11.770;2022-11-20T14:05:58;92645.00;;;7.46;52.17
59367;BME280;45163;47.690;11.770;2022-11-20T14:08:45;92643.69;;;7.38;54.01
59367;BME280;45163;47.690;11.770;2022-11-20T14:11:20;92643.53;;;7.29;54.06
59367;BME280;45163;47.690;11.770;2022-11-20T14:16:25;92649.47;;;7.11;54.71
59367;BME280;45163;47.690;11.770;2022-11-20T14:18:52;92643.69;;;7.09;57.63
59367;BME280;45163;47.690;11.770;2022-11-20T14:21:27;92647.78;;;7.01;58.22
59367;BME280;45163;47.690;11.770;2022-11-20T14:24:02;92642.03;;;6.99;57.28
59367;BME280;45163;47.690;11.770;2022-11-20T14:26:29;92647.47;;;6.99;59.25
59367;BME280;45163;47.690;11.770;2022-11-20T14:28:55;92643.53;;;7.00;59.11
59367;BME280;45163;47.690;11.770;2022-11-20T14:31:23;92643.13;;;6.85;60.07
59367;BME280;45163;47.690;11.770;2022-11-20T14:33:54;92637.72;;;6.85;59.42
59367;BME280;45163;47.690;11.770;2022-11-20T14:36:23;92643.66;;;6.80;60.02
59367;BME280;45163;47.690;11.770;2022-11-20T14:38:51;92639.25;;;6.86;65.27
59367;BME280;45163;47.690;11.770;2022-11-20T14:41:19;92642.38;;;6.85;73.49
59367;BME280;45163;47.690;11.770;2022-11-20T14:43:56;92650.81;;;6.74;78.41
59367;BME280;45163;47.690;11.770;2022-11-20T14:46:23;92650.72;;;6.61;77.65
59367;BME280;45163;47.690;11.770;2022-11-20T14:48:51;92655.13;;;6.55;82.56
59367;BME280;45163;47.690;11.770;2022-11-20T14:51:35;92654.28;;;6.42;84.24
59367;BME280;45163;47.690;11.770;2022-11-20T14:54:17;92655.31;;;6.32;85.37
59367;BME280;45163;47.690;11.770;2022-11-20T14:57:00;92652.69;;;6.28;84.73
59367;BME280;45163;47.690;11.770;2022-11-20T14:59:29;92649.63;;;6.26;89.39